Hlavní strana
METAR-TAF:

METAR-TAF

Letiště :

El Borma, Tunisko

zeměpisná šířka: 31-41N, zeměpisná délka: 009-10E, výška: 258 m

Aktuální stav počasí

Zpráva byla vytvořena před 1 hodinou a 57 minutami, v 15:00 UTC
Severní vítr 6 kt, proměnlivý mezi severoseverozápadním a východoseverovýchodním
Teplota 19°C
Vlhkost vzduchu 37%
Tlak 1031 hPa
Viditelnost 10 km a více
Žádná oblačnost pod 1500 m, nevyskytují se cumulonimby.

METAR: DTTR 231500Z 01006KT 330V060 CAVOK 19/04 Q1031 NOSIG

Čas: 17:57 (16:57 UTC)

Předpověď počasí

Zpráva byla vytvořena před 1 hodinou a 57 minutami, v 15:00 UTC
Předpověď platná od 23 v 16 UTC do 24 v 01 UTC
Severní vítr 6 kt
Viditelnost 10 km a více
Žádná oblačnost pod 1500 m, nevyskytují se cumulonimby.

TAF: DTTR 231500Z 2316/2401 01006KT CAVOK

Stav a předpovědi počasí z více než 4 000 letišť (zprávy METAR a TAF).

Červené a žluté tečky na mapě představují dostupné meteorologické stanice.

Když kurzor umístíte na tečku, zobrazí se název stanice.

Pak kliknutím zobrazíte stav a předpověď počasí.

Chcete-li změnit mapu, kliknutím na zelené tlačítko se znaménkem +mapu přiblížíte, kliknutím na zelené tlačítko se znaménkem – mapu oddálíte a kliknutím na zelené šipky přejdete na sousední mapy.


METAR-TAF: